Terminal Aerodrome Forecast
Issued by NWS

Home | Current Version | Previous Version | Text Only | Print | Product List | Glossary Off
Versions: 1 2 3 4 5 6 7 8 9 10 11 12 13 14 15 16 17

000
FTUS43 KTOP 232014 AAA
TAFMHK
TAF AMD
KMHK 232014Z 2320/2418 34011KT P6SM VCSH BKN050
      TEMPO 2320/2323 -SHRA BKN040
     FM240100 33007KT P6SM BKN040=

USA.gov is the U.S. government's official web portal to all federal, state and local government web resources and services.